createdAt,value
2018-09-20T00:00:36.249Z,25.30
2018-09-20T00:03:04.339Z,25.30
2018-09-20T00:05:32.420Z,25.30
2018-09-20T00:08:00.632Z,25.30
2018-09-20T00:10:28.747Z,25.30
2018-09-20T00:12:56.841Z,25.30
2018-09-20T00:15:24.913Z,25.30
2018-09-20T00:17:53.076Z,25.30
2018-09-20T00:20:21.161Z,25.30
2018-09-20T00:22:49.256Z,25.30
2018-09-20T00:25:17.375Z,25.30
2018-09-20T00:27:45.448Z,25.30
2018-09-20T00:30:13.545Z,25.30
2018-09-20T00:32:41.611Z,25.30
2018-09-20T00:35:09.697Z,25.30
2018-09-20T00:37:37.844Z,25.30
2018-09-20T00:40:05.959Z,25.30
2018-09-20T00:42:34.024Z,25.30
2018-09-20T00:45:02.172Z,25.30
2018-09-20T00:47:30.264Z,25.30
2018-09-20T00:49:58.360Z,25.30
2018-09-20T00:52:26.428Z,25.30
2018-09-20T00:54:54.507Z,25.30
2018-09-20T00:57:22.574Z,25.30
2018-09-20T00:59:50.620Z,25.30
2018-09-20T01:02:18.699Z,25.20
2018-09-20T01:04:46.880Z,25.20
2018-09-20T01:07:14.959Z,25.20
2018-09-20T01:09:43.021Z,25.30
2018-09-20T01:12:11.108Z,25.30
2018-09-20T01:14:39.210Z,25.20
2018-09-20T01:17:07.328Z,25.20
2018-09-20T01:19:35.419Z,25.20
2018-09-20T01:22:03.480Z,25.20
2018-09-20T01:24:31.580Z,25.20
2018-09-20T01:26:59.676Z,25.20
2018-09-20T01:29:27.757Z,25.20
2018-09-20T01:31:55.815Z,25.20
2018-09-20T01:34:23.880Z,25.20
2018-09-20T01:36:51.967Z,25.20
2018-09-20T01:39:20.020Z,25.20
2018-09-20T01:41:48.103Z,25.20
2018-09-20T01:44:16.180Z,25.20
2018-09-20T01:46:44.325Z,25.20
2018-09-20T01:49:12.392Z,25.20
2018-09-20T01:51:40.476Z,25.20
2018-09-20T01:54:08.531Z,25.20
2018-09-20T01:56:36.623Z,25.20
2018-09-20T01:59:04.724Z,25.20
2018-09-20T02:01:32.823Z,25.20
2018-09-20T02:04:00.920Z,25.20
2018-09-20T02:06:29.016Z,25.20
2018-09-20T02:08:57.083Z,25.20
2018-09-20T02:11:25.271Z,25.20
2018-09-20T02:13:53.281Z,25.20
2018-09-20T02:16:21.351Z,25.20
2018-09-20T02:18:49.400Z,25.20
2018-09-20T02:21:17.597Z,25.10
2018-09-20T02:23:45.648Z,25.20
2018-09-20T02:26:13.736Z,25.20
2018-09-20T02:28:41.804Z,25.10
2018-09-20T02:31:09.891Z,25.20
2018-09-20T02:33:37.965Z,25.10
2018-09-20T02:36:06.058Z,25.20
2018-09-20T02:38:34.368Z,25.10
2018-09-20T02:41:02.528Z,25.10
2018-09-20T02:43:30.601Z,25.10
2018-09-20T02:45:58.767Z,25.10
2018-09-20T02:48:26.840Z,25.20
2018-09-20T02:50:54.923Z,25.10
2018-09-20T02:53:23.012Z,25.10
2018-09-20T02:55:51.108Z,25.10
2018-09-20T02:58:19.256Z,25.10
2018-09-20T03:00:47.885Z,25.10
2018-09-20T03:03:15.936Z,25.10
2018-09-20T03:05:44.229Z,25.10
2018-09-20T03:08:12.312Z,25.10
2018-09-20T03:10:40.365Z,25.10
2018-09-20T03:13:08.581Z,25.10
2018-09-20T03:15:36.663Z,25.10
2018-09-20T03:18:04.757Z,25.10
2018-09-20T03:20:32.868Z,25.10
2018-09-20T03:23:00.941Z,25.10
2018-09-20T03:25:29.036Z,25.10
2018-09-20T03:27:57.163Z,25.10
2018-09-20T03:30:25.378Z,25.10
2018-09-20T03:32:53.360Z,25.10
2018-09-20T03:35:21.441Z,25.10
2018-09-20T03:37:49.569Z,25.10
2018-09-20T03:40:17.860Z,25.10
2018-09-20T03:42:45.936Z,25.10
2018-09-20T03:45:14.001Z,25.10
2018-09-20T03:47:42.077Z,25.10
2018-09-20T03:50:10.162Z,25.10
2018-09-20T03:52:38.240Z,25.10
2018-09-20T03:55:06.639Z,25.10
2018-09-20T03:57:34.697Z,25.10
2018-09-20T04:00:02.829Z,25.10
2018-09-20T04:02:30.926Z,25.10
2018-09-20T04:04:59.204Z,25.10
2018-09-20T04:07:27.306Z,25.10
2018-09-20T04:09:55.427Z,25.10
2018-09-20T04:12:23.590Z,25.10
2018-09-20T04:14:51.793Z,25.10
2018-09-20T04:17:19.973Z,25.10
2018-09-20T04:19:48.033Z,25.10
2018-09-20T04:22:16.147Z,25.10
2018-09-20T04:24:44.329Z,25.10
2018-09-20T04:27:12.501Z,25.10
2018-09-20T04:29:40.600Z,25.10
2018-09-20T04:32:08.663Z,25.10
2018-09-20T04:34:36.729Z,25.00
2018-09-20T04:37:04.800Z,25.00
2018-09-20T04:39:32.959Z,25.10
2018-09-20T04:42:01.060Z,25.10
2018-09-20T04:44:29.189Z,25.10
2018-09-20T04:46:57.348Z,25.00
2018-09-20T04:49:25.423Z,25.00
2018-09-20T04:51:53.511Z,25.00
2018-09-20T04:54:21.564Z,25.00
2018-09-20T04:56:49.629Z,25.00
2018-09-20T04:59:17.689Z,25.00
2018-09-20T05:01:45.905Z,25.00
2018-09-20T05:04:14.033Z,25.00
2018-09-20T05:06:42.107Z,25.00
2018-09-20T05:09:12.467Z,25.00
2018-09-20T05:11:40.755Z,25.00
2018-09-20T05:14:08.944Z,25.00
2018-09-20T05:16:37.033Z,25.00
2018-09-20T05:19:05.113Z,25.00
2018-09-20T05:21:33.265Z,25.00
2018-09-20T05:24:01.538Z,25.00
2018-09-20T05:26:29.708Z,25.00
2018-09-20T05:28:57.830Z,25.00
2018-09-20T05:31:25.980Z,25.00
2018-09-20T05:33:54.073Z,25.00
2018-09-20T05:36:22.568Z,25.00
2018-09-20T05:38:50.724Z,25.00
2018-09-20T05:41:18.840Z,25.00
2018-09-20T05:43:47.477Z,25.00
2018-09-20T05:46:15.542Z,25.00
2018-09-20T05:48:43.621Z,25.00
2018-09-20T05:51:11.701Z,25.00
2018-09-20T05:53:39.820Z,25.00
2018-09-20T05:56:07.879Z,25.00
2018-09-20T05:58:36.013Z,25.00
2018-09-20T06:01:04.104Z,25.00
2018-09-20T06:03:32.204Z,25.00
2018-09-20T06:06:00.330Z,25.00
2018-09-20T06:08:28.489Z,25.00
2018-09-20T06:10:56.720Z,25.00
2018-09-20T06:13:24.804Z,25.00
2018-09-20T06:15:52.943Z,25.00
2018-09-20T06:18:21.064Z,25.00
2018-09-20T06:20:49.248Z,25.00
2018-09-20T06:23:17.320Z,25.00
2018-09-20T06:25:45.412Z,25.00
2018-09-20T06:28:13.472Z,25.00
2018-09-20T06:30:41.567Z,25.00
2018-09-20T06:33:09.641Z,25.10
2018-09-20T06:35:37.723Z,25.00
2018-09-20T06:38:05.912Z,25.10
2018-09-20T06:40:34.026Z,25.00
2018-09-20T06:43:02.308Z,25.10
2018-09-20T06:45:30.534Z,25.10
2018-09-20T06:47:58.645Z,25.10
2018-09-20T06:50:26.762Z,25.00
2018-09-20T06:52:54.823Z,25.10
2018-09-20T06:55:22.885Z,25.00
2018-09-20T06:57:50.944Z,25.00
2018-09-20T07:00:19.148Z,25.10
2018-09-20T07:02:47.256Z,25.10
2018-09-20T07:05:15.418Z,25.10
2018-09-20T07:07:43.593Z,25.10
2018-09-20T07:10:11.780Z,25.10
2018-09-20T07:12:40.012Z,25.10
2018-09-20T07:15:08.716Z,25.10
2018-09-20T07:17:37.103Z,25.10
2018-09-20T07:20:05.435Z,25.10
2018-09-20T07:22:33.497Z,25.10
2018-09-20T07:25:01.627Z,25.10
2018-09-20T07:27:29.721Z,25.10
2018-09-20T07:29:57.944Z,25.10
2018-09-20T07:32:26.116Z,25.10
2018-09-20T07:34:54.207Z,25.10
2018-09-20T07:37:22.380Z,25.10
2018-09-20T07:39:50.617Z,25.10
2018-09-20T07:42:18.763Z,25.10
2018-09-20T07:44:47.000Z,25.10
2018-09-20T07:47:15.080Z,25.10
2018-09-20T07:49:43.314Z,25.10
2018-09-20T07:52:11.380Z,25.10
2018-09-20T07:54:39.464Z,25.10
2018-09-20T07:57:07.912Z,25.10
2018-09-20T07:59:36.065Z,25.10
2018-09-20T08:02:04.227Z,25.10
2018-09-20T08:04:32.392Z,25.10
2018-09-20T08:07:00.648Z,25.10
2018-09-20T08:09:28.684Z,25.10
2018-09-20T08:11:56.848Z,25.10
2018-09-20T08:14:24.984Z,25.10
2018-09-20T08:16:53.041Z,25.10
2018-09-20T08:19:21.132Z,25.10
2018-09-20T08:21:49.219Z,25.10
2018-09-20T08:24:17.405Z,25.10
2018-09-20T08:26:45.492Z,25.10
2018-09-20T08:29:13.637Z,25.10
2018-09-20T08:31:41.770Z,25.10
2018-09-20T08:34:09.919Z,25.10
2018-09-20T08:36:37.999Z,25.10
2018-09-20T08:39:09.759Z,25.10
2018-09-20T08:41:38.141Z,25.10
2018-09-20T08:44:06.583Z,25.10
2018-09-20T08:46:34.712Z,25.20
2018-09-20T08:49:02.865Z,25.20
2018-09-20T08:51:31.004Z,25.20
2018-09-20T08:53:59.065Z,25.20
2018-09-20T08:56:27.180Z,25.20
2018-09-20T08:58:55.245Z,25.20
2018-09-20T09:01:23.304Z,25.20
2018-09-20T09:03:51.392Z,25.20
2018-09-20T09:06:19.472Z,25.30
2018-09-20T09:08:47.650Z,25.30
2018-09-20T09:11:15.872Z,25.30
2018-09-20T09:13:44.057Z,25.40
2018-09-20T09:16:12.280Z,25.40
2018-09-20T09:18:40.430Z,25.40
2018-09-20T09:21:08.522Z,25.40
2018-09-20T09:23:36.658Z,25.40
2018-09-20T09:26:04.727Z,25.40
2018-09-20T09:28:32.829Z,25.50
2018-09-20T09:31:01.027Z,25.50
2018-09-20T09:33:29.089Z,25.50
2018-09-20T09:35:57.197Z,25.50
2018-09-20T09:38:25.307Z,25.50
2018-09-20T09:40:53.400Z,25.50
2018-09-20T09:43:21.493Z,25.50
2018-09-20T09:45:49.553Z,25.60
2018-09-20T09:48:17.719Z,25.60
2018-09-20T09:50:45.834Z,25.60
2018-09-20T09:53:14.093Z,25.60
2018-09-20T09:55:42.309Z,25.60
2018-09-20T09:58:10.560Z,25.60
2018-09-20T10:00:41.217Z,25.60
2018-09-20T10:03:10.605Z,25.60
2018-09-20T10:05:38.676Z,25.60
2018-09-20T10:08:06.812Z,25.60
2018-09-20T10:10:34.875Z,25.70
2018-09-20T10:13:03.091Z,25.70
2018-09-20T10:15:31.359Z,25.60
2018-09-20T10:17:59.530Z,25.70
2018-09-20T10:20:27.672Z,25.70
2018-09-20T10:22:55.838Z,25.70
2018-09-20T10:25:23.929Z,25.70
2018-09-20T10:27:52.110Z,25.70
2018-09-20T10:30:20.312Z,25.70
2018-09-20T10:32:48.436Z,25.70
2018-09-20T10:35:16.716Z,25.70
2018-09-20T10:37:44.953Z,25.70
2018-09-20T10:40:13.066Z,25.70
2018-09-20T10:42:41.260Z,25.70
2018-09-20T10:45:09.449Z,25.80
2018-09-20T10:47:37.568Z,25.80
2018-09-20T10:50:05.853Z,25.80
2018-09-20T10:52:33.980Z,25.90
2018-09-20T10:55:07.172Z,25.90
2018-09-20T10:57:35.441Z,25.90
2018-09-20T11:00:03.740Z,25.90
2018-09-20T11:02:31.889Z,25.90
2018-09-20T11:04:59.960Z,25.90
2018-09-20T11:07:28.041Z,25.90
2018-09-20T11:09:56.283Z,25.90
2018-09-20T11:12:24.368Z,25.90
2018-09-20T11:14:52.439Z,25.90
2018-09-20T11:17:20.521Z,25.90
2018-09-20T11:19:48.600Z,26.00
2018-09-20T11:22:16.689Z,26.00
2018-09-20T11:24:44.959Z,26.00
2018-09-20T11:27:13.129Z,26.00
2018-09-20T11:29:41.352Z,25.90
2018-09-20T11:32:09.452Z,25.90
2018-09-20T11:34:37.526Z,25.90
2018-09-20T11:37:05.588Z,25.90
2018-09-20T11:39:33.704Z,25.90
2018-09-20T11:42:01.749Z,25.90
2018-09-20T11:44:29.853Z,26.00
2018-09-20T11:46:57.932Z,25.90
2018-09-20T11:49:26.003Z,26.00
2018-09-20T11:52:31.469Z,26.00
2018-09-20T11:54:59.637Z,26.00
2018-09-20T11:57:27.773Z,26.00
2018-09-20T11:59:55.952Z,26.00
2018-09-20T12:02:24.028Z,26.00
2018-09-20T12:04:52.117Z,26.00
2018-09-20T12:07:20.232Z,26.00
2018-09-20T12:09:48.429Z,26.00
2018-09-20T12:12:16.581Z,26.00
2018-09-20T12:14:44.862Z,26.00
2018-09-20T12:17:13.157Z,25.90
2018-09-20T12:19:41.360Z,26.00
2018-09-20T12:22:09.916Z,25.90
2018-09-20T12:24:38.299Z,26.00
2018-09-20T12:27:06.567Z,26.00
2018-09-20T12:29:34.833Z,26.00
2018-09-20T12:32:03.104Z,26.00
2018-09-20T12:34:31.286Z,26.10
2018-09-20T12:36:59.745Z,26.10
2018-09-20T12:39:27.933Z,26.10
2018-09-20T12:41:56.148Z,26.00
2018-09-20T12:44:24.266Z,26.00
2018-09-20T12:46:52.428Z,26.00
2018-09-20T12:49:20.607Z,26.00
2018-09-20T12:51:48.976Z,26.00
2018-09-20T12:54:17.284Z,26.00
2018-09-20T12:56:45.723Z,26.10
2018-09-20T12:59:13.939Z,26.10
2018-09-20T13:01:42.550Z,26.10
2018-09-20T13:04:10.789Z,26.10
2018-09-20T13:06:38.998Z,26.10
2018-09-20T13:09:11.954Z,26.10
2018-09-20T13:11:44.787Z,26.10
2018-09-20T13:14:14.189Z,26.10
2018-09-20T13:16:43.819Z,26.10
2018-09-20T13:19:11.938Z,26.20
2018-09-20T13:21:40.218Z,26.20
2018-09-20T13:24:08.408Z,26.20
2018-09-20T13:26:36.616Z,26.20
2018-09-20T13:29:04.737Z,26.30
2018-09-20T13:31:32.885Z,26.30
2018-09-20T13:34:01.146Z,26.30
2018-09-20T13:36:29.240Z,26.30
2018-09-20T13:38:57.704Z,26.30
2018-09-20T13:41:26.020Z,26.30
2018-09-20T13:43:54.252Z,26.30
2018-09-20T13:46:22.335Z,26.30
2018-09-20T13:48:50.684Z,26.40
2018-09-20T13:51:18.881Z,26.40
2018-09-20T13:53:47.037Z,26.40
2018-09-20T13:56:15.157Z,26.40
2018-09-20T13:58:47.223Z,26.40
2018-09-20T14:01:15.573Z,26.40
2018-09-20T14:03:44.072Z,26.40
2018-09-20T14:06:12.559Z,26.50
2018-09-20T14:08:41.041Z,26.50
2018-09-20T14:11:09.256Z,26.40
2018-09-20T14:13:37.545Z,26.50
2018-09-20T14:16:06.049Z,26.40
2018-09-20T14:18:34.413Z,26.40
2018-09-20T14:21:02.856Z,26.50
2018-09-20T14:23:31.829Z,26.40
2018-09-20T14:26:00.082Z,26.40
2018-09-20T14:28:28.936Z,26.50
2018-09-20T14:30:57.152Z,26.50
2018-09-20T14:33:25.374Z,26.50
2018-09-20T14:35:53.453Z,26.50
2018-09-20T14:38:21.928Z,26.50
2018-09-20T14:40:50.055Z,26.50
2018-09-20T14:43:18.304Z,26.50
2018-09-20T14:45:46.566Z,26.50
2018-09-20T14:48:14.754Z,26.50
2018-09-20T14:50:43.073Z,26.50
2018-09-20T14:53:11.639Z,26.50
2018-09-20T14:55:40.157Z,26.50
2018-09-20T14:58:08.311Z,26.50
2018-09-20T15:00:36.591Z,26.50
2018-09-20T15:03:04.960Z,26.50
2018-09-20T15:05:33.269Z,26.50
2018-09-20T15:08:01.446Z,26.50
2018-09-20T15:10:29.545Z,26.50
2018-09-20T15:12:58.039Z,26.50
2018-09-20T15:15:26.250Z,26.50
2018-09-20T15:17:54.494Z,26.50
2018-09-20T15:20:23.745Z,26.50
2018-09-20T15:22:51.991Z,26.50
2018-09-20T15:25:20.186Z,26.50
2018-09-20T15:27:48.308Z,26.50
2018-09-20T15:30:16.577Z,26.50
2018-09-20T15:32:44.984Z,26.50
2018-09-20T15:35:13.557Z,26.50
2018-09-20T15:37:41.889Z,26.50
2018-09-20T15:40:11.658Z,26.60
2018-09-20T15:42:39.913Z,26.50
2018-09-20T15:45:08.088Z,26.50
2018-09-20T15:47:36.595Z,26.60
2018-09-20T15:50:04.701Z,26.50
2018-09-20T15:52:32.972Z,26.50
2018-09-20T15:55:01.273Z,26.50
2018-09-20T15:57:29.376Z,26.60
2018-09-20T15:59:57.631Z,26.60
2018-09-20T16:02:25.819Z,26.60
2018-09-20T16:04:54.003Z,26.60
2018-09-20T16:07:22.117Z,26.50
2018-09-20T16:09:50.217Z,26.50
2018-09-20T16:12:18.376Z,26.50
2018-09-20T16:14:46.489Z,26.50
2018-09-20T16:17:14.637Z,26.50
2018-09-20T16:19:42.807Z,26.50
2018-09-20T16:22:11.001Z,26.50
2018-09-20T16:24:39.423Z,26.50
2018-09-20T16:27:07.783Z,26.50
2018-09-20T16:29:48.332Z,26.50
2018-09-20T16:32:31.846Z,26.50
2018-09-20T16:36:19.153Z,26.50
2018-09-20T16:38:52.635Z,26.50
2018-09-20T16:41:25.518Z,26.50
2018-09-20T16:43:54.118Z,26.50
2018-09-20T16:46:22.233Z,26.40
2018-09-20T16:48:50.384Z,26.40
2018-09-20T16:51:18.560Z,26.40
2018-09-20T16:53:46.731Z,26.40
2018-09-20T16:56:15.093Z,26.40
2018-09-20T16:58:48.848Z,26.30
2018-09-20T17:01:17.798Z,26.40
2018-09-20T17:03:46.818Z,26.40
2018-09-20T17:06:15.277Z,26.40
2018-09-20T17:08:44.017Z,26.30
2018-09-20T17:11:12.668Z,26.30
2018-09-20T17:13:40.853Z,26.30
2018-09-20T17:16:09.026Z,26.30
2018-09-20T17:18:37.188Z,26.30
2018-09-20T17:21:05.313Z,26.30
2018-09-20T17:23:33.700Z,26.20
2018-09-20T17:26:02.132Z,26.20
2018-09-20T17:28:30.451Z,26.20
2018-09-20T17:30:58.881Z,26.20
2018-09-20T17:33:27.141Z,26.20
2018-09-20T17:35:55.484Z,26.10
2018-09-20T17:38:24.105Z,26.10
2018-09-20T17:40:57.346Z,26.10
2018-09-20T17:43:30.031Z,26.10
2018-09-20T17:45:58.093Z,26.10
2018-09-20T17:48:26.489Z,26.10
2018-09-20T17:50:54.971Z,26.10
2018-09-20T17:53:23.877Z,26.00
2018-09-20T17:55:52.590Z,26.00
2018-09-20T17:58:21.097Z,26.00
2018-09-20T18:00:49.782Z,26.00
2018-09-20T18:03:20.306Z,26.00
2018-09-20T18:05:48.747Z,26.00
2018-09-20T18:08:16.919Z,26.00
2018-09-20T18:10:45.205Z,26.00
2018-09-20T18:13:13.374Z,26.00
2018-09-20T18:15:43.030Z,26.00
2018-09-20T18:18:11.350Z,25.90
2018-09-20T18:20:39.662Z,25.90
2018-09-20T18:23:07.823Z,25.90
2018-09-20T18:25:36.136Z,25.90
2018-09-20T18:28:04.264Z,25.90
2018-09-20T18:30:32.410Z,25.90
2018-09-20T18:33:00.664Z,25.90
2018-09-20T18:35:28.870Z,25.90
2018-09-20T18:37:57.075Z,25.90
2018-09-20T18:40:25.247Z,25.90
2018-09-20T18:42:53.333Z,25.90
2018-09-20T18:45:21.544Z,25.90
2018-09-20T18:47:49.758Z,25.90
2018-09-20T18:50:17.970Z,25.90
2018-09-20T18:52:46.225Z,25.90
2018-09-20T18:55:14.445Z,25.80
2018-09-20T18:57:42.698Z,25.80
2018-09-20T19:00:10.997Z,25.80
2018-09-20T19:02:39.123Z,25.80
2018-09-20T19:05:07.373Z,25.80
2018-09-20T19:07:35.497Z,25.80
2018-09-20T19:10:03.632Z,25.80
2018-09-20T19:12:31.853Z,25.80
2018-09-20T19:14:59.966Z,25.80
2018-09-20T19:17:28.104Z,25.80
2018-09-20T19:19:56.235Z,25.80
2018-09-20T19:22:24.419Z,25.70
2018-09-20T19:24:52.570Z,25.70
2018-09-20T19:27:20.755Z,25.70
2018-09-20T19:29:48.848Z,25.70
2018-09-20T19:32:16.981Z,25.70
2018-09-20T19:34:45.136Z,25.70
2018-09-20T19:37:13.217Z,25.70
2018-09-20T19:39:41.461Z,25.70
2018-09-20T19:42:09.612Z,25.70
2018-09-20T19:44:37.786Z,25.70
2018-09-20T19:47:06.111Z,25.70
2018-09-20T19:49:48.241Z,25.70
2018-09-20T19:52:16.401Z,25.70
2018-09-20T19:54:44.573Z,25.70
2018-09-20T19:57:12.733Z,25.70
2018-09-20T19:59:40.851Z,25.70
2018-09-20T20:02:08.951Z,25.70
2018-09-20T20:04:37.048Z,25.70
2018-09-20T20:07:05.156Z,25.70
2018-09-20T20:09:33.251Z,25.70
2018-09-20T20:12:01.361Z,25.70
2018-09-20T20:14:29.472Z,25.70
2018-09-20T20:16:57.589Z,25.70
2018-09-20T20:19:25.686Z,25.70
2018-09-20T20:21:53.779Z,25.70
2018-09-20T20:24:21.914Z,25.70
2018-09-20T20:26:50.104Z,25.70
2018-09-20T20:29:18.209Z,25.70
2018-09-20T20:31:46.323Z,25.70
2018-09-20T20:34:14.421Z,25.70
2018-09-20T20:36:42.660Z,25.70
2018-09-20T20:39:11.257Z,25.70
2018-09-20T20:41:39.349Z,25.70
2018-09-20T20:44:07.433Z,25.70
2018-09-20T20:46:35.652Z,25.70
2018-09-20T20:49:03.731Z,25.70
2018-09-20T20:51:31.865Z,25.70
2018-09-20T20:54:00.089Z,25.70
2018-09-20T20:56:28.165Z,25.70
2018-09-20T20:58:56.266Z,25.70
2018-09-20T21:01:24.325Z,25.70
2018-09-20T21:03:52.404Z,25.70
2018-09-20T21:09:23.182Z,25.70
2018-09-20T21:11:51.265Z,25.70
2018-09-20T21:14:19.432Z,25.70
2018-09-20T21:16:47.521Z,25.70
2018-09-20T21:19:15.655Z,25.70
2018-09-20T21:21:43.723Z,25.70
2018-09-20T21:24:11.842Z,25.70
2018-09-20T21:26:39.962Z,25.70
2018-09-20T21:29:08.052Z,25.70
2018-09-20T21:31:36.304Z,25.70
2018-09-20T21:34:04.404Z,25.70
2018-09-20T21:36:32.533Z,25.70
2018-09-20T21:39:00.665Z,25.70
2018-09-20T21:41:28.785Z,25.70
2018-09-20T21:43:56.905Z,25.80
2018-09-20T21:46:25.049Z,25.70
2018-09-20T21:48:53.154Z,25.80
2018-09-20T21:51:21.262Z,25.70
2018-09-20T21:53:49.357Z,25.70
2018-09-20T21:56:17.572Z,25.80
2018-09-20T21:58:45.780Z,25.80
2018-09-20T22:01:14.573Z,25.80
2018-09-20T22:03:42.681Z,25.80
2018-09-20T22:06:10.782Z,25.80
2018-09-20T22:08:38.894Z,25.80
2018-09-20T22:11:07.040Z,25.80
2018-09-20T22:13:35.113Z,25.80
2018-09-20T22:16:03.283Z,25.80
2018-09-20T22:18:31.384Z,25.80
2018-09-20T22:20:59.458Z,25.80
2018-09-20T22:23:27.593Z,25.80
2018-09-20T22:25:55.763Z,25.80
2018-09-20T22:28:23.885Z,25.80
2018-09-20T22:30:51.970Z,25.80
2018-09-20T22:33:20.067Z,25.80
2018-09-20T22:35:48.156Z,25.80
2018-09-20T22:38:16.246Z,25.80
2018-09-20T22:40:44.343Z,25.80
2018-09-20T22:43:12.442Z,25.80
2018-09-20T22:45:40.548Z,25.80
2018-09-20T22:48:08.637Z,25.90
2018-09-20T22:50:36.706Z,25.90
2018-09-20T22:53:05.166Z,25.90
2018-09-20T22:55:33.234Z,25.90
2018-09-20T22:58:01.309Z,25.90
2018-09-20T23:00:29.486Z,25.90
2018-09-20T23:02:57.577Z,25.90
2018-09-20T23:05:25.682Z,25.90
2018-09-20T23:07:53.770Z,25.90
2018-09-20T23:10:21.977Z,25.90
2018-09-20T23:12:50.074Z,25.90
2018-09-20T23:15:18.186Z,25.90
2018-09-20T23:17:46.317Z,25.90
2018-09-20T23:20:14.467Z,25.90
2018-09-20T23:22:42.577Z,25.90
2018-09-20T23:25:10.705Z,25.90
2018-09-20T23:27:38.808Z,25.90
2018-09-20T23:30:07.063Z,25.90
2018-09-20T23:32:35.146Z,25.90
2018-09-20T23:35:03.286Z,25.90
2018-09-20T23:37:31.405Z,25.90
2018-09-20T23:39:59.536Z,25.90
2018-09-20T23:42:27.632Z,26.00
2018-09-20T23:44:55.748Z,26.00
2018-09-20T23:47:23.871Z,26.00
2018-09-20T23:49:51.949Z,26.00
2018-09-20T23:52:20.037Z,26.00
2018-09-20T23:54:48.190Z,26.00
2018-09-20T23:57:16.254Z,26.00
2018-09-20T23:59:44.337Z,26.00
